createdAt,value
2018-05-15T00:00:08.533Z,936.94
2018-05-15T00:01:08.702Z,936.93
2018-05-15T00:02:08.568Z,936.91
2018-05-15T00:03:08.565Z,936.91
2018-05-15T00:04:08.565Z,936.93
2018-05-15T00:05:08.580Z,936.93
2018-05-15T00:06:08.761Z,936.94
2018-05-15T00:07:09.086Z,936.93
2018-05-15T00:08:09.671Z,936.91
2018-05-15T00:09:09.178Z,936.91
2018-05-15T00:10:09.222Z,936.94
2018-05-15T00:11:09.121Z,936.96
2018-05-15T00:13:09.268Z,936.98
2018-05-15T00:14:09.586Z,937.00
2018-05-15T00:15:09.305Z,937.03
2018-05-15T00:16:09.304Z,937.01
2018-05-15T00:17:08.938Z,937.00
2018-05-15T00:18:08.790Z,936.99
2018-05-15T00:19:08.790Z,937.00
2018-05-15T00:20:08.808Z,936.99
2018-05-15T00:21:08.818Z,936.99
2018-05-15T00:22:08.929Z,936.96
2018-05-15T00:23:08.836Z,937.03
2018-05-15T00:24:08.885Z,936.97
2018-05-15T00:25:08.895Z,937.00
2018-05-15T00:26:08.891Z,936.96
2018-05-15T00:27:08.999Z,936.96
2018-05-15T00:28:08.941Z,936.94
2018-05-15T00:29:08.931Z,936.94
2018-05-15T00:30:08.974Z,936.95
2018-05-15T00:31:08.987Z,936.94
2018-05-15T00:32:09.074Z,936.91
2018-05-15T00:33:08.985Z,936.92
2018-05-15T00:34:09.025Z,936.96
2018-05-15T00:35:09.044Z,936.93
2018-05-15T00:36:09.031Z,936.90
2018-05-15T00:37:09.147Z,936.91
2018-05-15T00:38:09.068Z,936.93
2018-05-15T00:39:09.076Z,936.90
2018-05-15T00:40:09.089Z,936.92
2018-05-15T00:41:09.129Z,936.88
2018-05-15T00:42:09.241Z,936.86
2018-05-15T00:43:09.126Z,936.90
2018-05-15T00:44:09.221Z,936.87
2018-05-15T00:45:09.163Z,936.91
2018-05-15T00:46:09.180Z,936.90
2018-05-15T00:47:09.357Z,936.91
2018-05-15T00:48:09.213Z,936.92
2018-05-15T00:49:09.227Z,936.94
2018-05-15T00:50:09.235Z,936.94
2018-05-15T00:51:09.317Z,936.98
2018-05-15T00:52:09.372Z,936.93
2018-05-15T00:53:09.272Z,936.90
2018-05-15T00:54:09.291Z,936.86
2018-05-15T00:55:09.327Z,936.87
2018-05-15T00:56:09.315Z,936.88
2018-05-15T00:57:09.512Z,936.86
2018-05-15T00:58:09.357Z,936.87
2018-05-15T00:59:09.373Z,936.84
2018-05-15T01:00:09.398Z,936.87
2018-05-15T01:01:09.413Z,936.85
2018-05-15T01:02:09.558Z,936.87
2018-05-15T01:03:09.443Z,936.85
2018-05-15T01:04:09.442Z,936.86
2018-05-15T01:07:06.717Z,936.83
2018-05-15T01:07:54.092Z,936.81
2018-05-15T01:08:54.031Z,936.77
2018-05-15T01:09:54.033Z,936.80
2018-05-15T01:10:54.059Z,936.78
2018-05-15T01:11:54.063Z,936.81
2018-05-15T01:12:54.192Z,936.77
2018-05-15T01:13:54.070Z,936.78
2018-05-15T01:14:54.094Z,936.75
2018-05-15T01:15:54.135Z,936.75
2018-05-15T01:16:54.122Z,936.74
2018-05-15T01:17:54.263Z,936.72
2018-05-15T01:18:54.152Z,936.76
2018-05-15T01:19:54.163Z,936.77
2018-05-15T01:20:54.178Z,936.75
2018-05-15T01:21:54.217Z,936.76
2018-05-15T01:22:54.322Z,936.76
2018-05-15T01:23:54.245Z,936.72
2018-05-15T01:24:54.238Z,936.73
2018-05-15T01:25:54.251Z,936.75
2018-05-15T01:26:54.267Z,936.76
2018-05-15T01:27:54.453Z,936.79
2018-05-15T01:28:54.291Z,936.78
2018-05-15T01:29:54.333Z,936.82
2018-05-15T01:30:54.340Z,936.78
2018-05-15T01:31:54.430Z,936.81
2018-05-15T01:32:54.512Z,936.79
2018-05-15T01:33:54.458Z,936.80
2018-05-15T01:34:54.467Z,936.81
2018-05-15T01:35:54.456Z,936.80
2018-05-15T01:36:54.476Z,936.81
2018-05-15T01:37:54.586Z,936.81
2018-05-15T01:38:54.522Z,936.80
2018-05-15T01:39:54.510Z,936.84
2018-05-15T01:40:54.502Z,936.84
2018-05-15T01:41:54.486Z,936.84
2018-05-15T01:42:54.678Z,936.78
2018-05-15T01:43:54.514Z,936.76
2018-05-15T01:44:54.528Z,936.69
2018-05-15T01:45:54.571Z,936.75
2018-05-15T01:46:54.556Z,936.70
2018-05-15T01:47:54.683Z,936.72
2018-05-15T01:48:54.610Z,936.73
2018-05-15T01:49:54.599Z,936.79
2018-05-15T01:50:54.614Z,936.77
2018-05-15T01:51:54.635Z,936.80
2018-05-15T01:52:54.645Z,936.78
2018-05-15T01:53:54.817Z,936.76
2018-05-15T01:54:54.671Z,936.78
2018-05-15T01:55:54.684Z,936.79
2018-05-15T01:56:54.724Z,936.79
2018-05-15T01:57:54.714Z,936.72
2018-05-15T01:58:54.909Z,936.78
2018-05-15T01:59:54.769Z,936.70
2018-05-15T02:00:54.765Z,936.71
2018-05-15T02:01:54.776Z,936.75
2018-05-15T02:02:54.816Z,936.73
2018-05-15T02:03:54.917Z,936.77
2018-05-15T02:04:54.808Z,936.75
2018-05-15T02:05:54.830Z,936.72
2018-05-15T02:06:54.840Z,936.67
2018-05-15T02:07:54.854Z,936.65
2018-05-15T02:08:55.045Z,936.64
2018-05-15T02:09:54.887Z,936.61
2018-05-15T02:10:54.902Z,936.61
2018-05-15T02:11:54.925Z,936.59
2018-05-15T02:12:54.929Z,936.60
2018-05-15T02:13:55.056Z,936.63
2018-05-15T02:14:54.984Z,936.59
2018-05-15T02:15:54.997Z,936.63
2018-05-15T02:16:54.996Z,936.57
2018-05-15T02:17:54.999Z,936.60
2018-05-15T02:18:55.141Z,936.56
2018-05-15T02:19:55.051Z,936.61
2018-05-15T02:20:55.068Z,936.58
2018-05-15T02:21:55.081Z,936.58
2018-05-15T02:22:55.070Z,936.61
2018-05-15T02:23:55.211Z,936.58
2018-05-15T02:24:55.991Z,936.57
2018-05-15T02:26:55.171Z,936.55
2018-05-15T02:27:56.681Z,936.50
2018-05-15T02:28:55.265Z,936.49
2018-05-15T02:29:55.200Z,936.45
2018-05-15T02:30:55.209Z,936.44
2018-05-15T02:31:55.984Z,936.45
2018-05-15T02:32:55.909Z,936.47
2018-05-15T02:33:55.351Z,936.47
2018-05-15T02:34:55.249Z,936.46
2018-05-15T02:35:55.265Z,936.45
2018-05-15T02:36:55.269Z,936.44
2018-05-15T02:37:55.291Z,936.39
2018-05-15T02:38:55.458Z,936.39
2018-05-15T02:39:55.333Z,936.35
2018-05-15T02:40:55.326Z,936.38
2018-05-15T02:41:55.339Z,936.33
2018-05-15T02:42:55.350Z,936.36
2018-05-15T02:43:55.461Z,936.37
2018-05-15T02:44:55.380Z,936.38
2018-05-15T02:45:55.390Z,936.41
2018-05-15T02:46:55.421Z,936.40
2018-05-15T02:47:55.445Z,936.41
2018-05-15T02:48:55.583Z,936.39
2018-05-15T02:49:55.452Z,936.45
2018-05-15T02:50:55.473Z,936.42
2018-05-15T02:51:55.501Z,936.47
2018-05-15T02:52:55.518Z,936.47
2018-05-15T02:53:55.615Z,936.45
2018-05-15T02:54:55.543Z,936.45
2018-05-15T02:55:55.542Z,936.39
2018-05-15T02:56:55.545Z,936.39
2018-05-15T02:57:55.556Z,936.37
2018-05-15T02:58:55.722Z,936.40
2018-05-15T02:59:55.584Z,936.39
2018-05-15T03:00:55.608Z,936.38
2018-05-15T03:01:55.613Z,936.34
2018-05-15T03:02:55.627Z,936.35
2018-05-15T03:03:55.644Z,936.35
2018-05-15T03:04:55.790Z,936.32
2018-05-15T03:05:55.695Z,936.32
2018-05-15T03:06:55.709Z,936.27
2018-05-15T03:07:55.733Z,936.28
2018-05-15T03:08:55.712Z,936.31
2018-05-15T03:09:55.837Z,936.27
2018-05-15T03:10:55.736Z,936.24
2018-05-15T03:11:56.925Z,936.24
2018-05-15T03:13:55.781Z,936.19
2018-05-15T03:14:55.925Z,936.17
2018-05-15T03:15:55.812Z,936.16
2018-05-15T03:16:55.851Z,936.17
2018-05-15T03:17:55.859Z,936.15
2018-05-15T03:18:55.848Z,936.18
2018-05-15T03:19:55.967Z,936.13
2018-05-15T03:20:55.888Z,936.16
2018-05-15T03:21:55.916Z,936.10
2018-05-15T03:22:55.904Z,936.13
2018-05-15T03:23:55.918Z,936.08
2018-05-15T03:24:56.040Z,936.10
2018-05-15T03:25:55.974Z,936.11
2018-05-15T03:26:55.989Z,936.11
2018-05-15T03:27:55.998Z,936.08
2018-05-15T03:28:56.020Z,936.03
2018-05-15T03:29:56.121Z,936.04
2018-05-15T03:30:56.047Z,936.01
2018-05-15T03:31:56.058Z,936.01
2018-05-15T03:32:56.044Z,936.00
2018-05-15T03:33:56.055Z,935.98
2018-05-15T03:34:56.197Z,935.99
2018-05-15T03:35:56.082Z,936.02
2018-05-15T03:36:56.109Z,935.98
2018-05-15T03:37:56.125Z,935.95
2018-05-15T03:38:56.157Z,936.00
2018-05-15T03:39:56.314Z,935.98
2018-05-15T03:40:56.181Z,935.97
2018-05-15T03:41:56.172Z,935.97
2018-05-15T03:42:56.186Z,935.99
2018-05-15T03:43:56.195Z,936.01
2018-05-15T03:44:56.333Z,935.99
2018-05-15T03:45:56.224Z,935.98
2018-05-15T03:46:56.238Z,935.99
2018-05-15T03:47:56.251Z,936.00
2018-05-15T03:48:56.297Z,936.01
2018-05-15T03:49:56.385Z,935.99
2018-05-15T03:50:56.321Z,936.02
2018-05-15T03:51:56.311Z,935.96
2018-05-15T03:52:56.323Z,935.99
2018-05-15T03:53:56.329Z,936.06
2018-05-15T03:54:56.493Z,936.02
2018-05-15T03:55:56.384Z,936.05
2018-05-15T03:56:56.370Z,935.99
2018-05-15T03:57:56.385Z,935.99
2018-05-15T03:58:56.417Z,935.99
2018-05-15T03:59:56.572Z,935.95
2018-05-15T04:00:56.427Z,935.97
2018-05-15T04:01:56.437Z,935.99
2018-05-15T04:02:56.476Z,935.95
2018-05-15T04:03:56.481Z,935.95
2018-05-15T04:04:56.630Z,936.02
2018-05-15T04:05:56.520Z,935.98
2018-05-15T04:06:56.531Z,935.99
2018-05-15T04:07:56.527Z,935.98
2018-05-15T04:08:56.542Z,935.96
2018-05-15T04:09:56.547Z,935.96
2018-05-15T04:10:56.737Z,935.95
2018-05-15T04:11:56.573Z,936.00
2018-05-15T04:12:56.584Z,935.97
2018-05-15T04:13:56.603Z,935.96
2018-05-15T04:14:56.643Z,936.00
2018-05-15T04:15:56.625Z,936.00
2018-05-15T04:16:56.793Z,936.04
2018-05-15T04:17:56.655Z,936.01
2018-05-15T04:18:56.702Z,936.03
2018-05-15T04:19:56.698Z,936.03
2018-05-15T04:20:56.721Z,936.02
2018-05-15T04:21:56.848Z,935.99
2018-05-15T04:22:56.720Z,935.99
2018-05-15T04:23:56.766Z,936.01
2018-05-15T04:24:56.755Z,935.98
2018-05-15T04:25:56.760Z,935.93
2018-05-15T04:26:56.908Z,935.93
2018-05-15T04:27:56.793Z,935.92
2018-05-15T04:28:56.836Z,935.95
2018-05-15T04:29:56.822Z,935.91
2018-05-15T04:30:56.848Z,935.90
2018-05-15T04:31:56.973Z,935.87
2018-05-15T04:32:56.887Z,935.88
2018-05-15T04:33:56.874Z,935.85
2018-05-15T04:34:56.980Z,935.85
2018-05-15T04:35:56.905Z,935.79
2018-05-15T04:36:57.046Z,935.86
2018-05-15T04:37:56.937Z,935.80
2018-05-15T04:38:56.971Z,935.81
2018-05-15T04:39:56.965Z,935.82
2018-05-15T04:40:56.999Z,935.83
2018-05-15T04:41:57.087Z,935.84
2018-05-15T04:42:57.014Z,935.83
2018-05-15T04:43:57.075Z,935.82
2018-05-15T04:44:57.033Z,935.84
2018-05-15T04:45:57.044Z,935.76
2018-05-15T04:46:57.205Z,935.78
2018-05-15T04:47:57.071Z,935.79
2018-05-15T04:48:57.086Z,935.77
2018-05-15T04:49:57.101Z,935.75
2018-05-15T04:50:57.144Z,935.78
2018-05-15T04:51:57.228Z,935.76
2018-05-15T04:52:57.138Z,935.74
2018-05-15T04:53:57.163Z,935.83
2018-05-15T04:54:57.166Z,935.78
2018-05-15T04:55:57.182Z,935.78
2018-05-15T04:56:57.360Z,935.77
2018-05-15T04:57:57.215Z,935.79
2018-05-15T04:58:57.220Z,935.79
2018-05-15T04:59:57.261Z,935.83
2018-05-15T05:00:57.253Z,935.76
2018-05-15T05:01:57.405Z,935.75
2018-05-15T05:02:57.302Z,935.75
2018-05-15T05:03:57.318Z,935.74
2018-05-15T05:04:57.309Z,935.71
2018-05-15T05:05:57.321Z,935.72
2018-05-15T05:06:57.462Z,935.73
2018-05-15T05:07:57.350Z,935.67
2018-05-15T05:08:57.365Z,935.67
2018-05-15T05:09:57.375Z,935.64
2018-05-15T05:10:57.411Z,935.62
2018-05-15T05:11:57.583Z,935.63
2018-05-15T05:12:57.429Z,935.58
2018-05-15T05:13:57.430Z,935.57
2018-05-15T05:14:57.457Z,935.63
2018-05-15T05:15:57.462Z,935.61
2018-05-15T05:16:57.573Z,935.57
2018-05-15T05:17:57.512Z,935.56
2018-05-15T05:18:57.508Z,935.54
2018-05-15T05:19:57.519Z,935.58
2018-05-15T05:20:57.559Z,935.54
2018-05-15T05:21:57.637Z,935.49
2018-05-15T05:22:57.558Z,935.51
2018-05-15T05:23:57.597Z,935.45
2018-05-15T05:24:57.614Z,935.46
2018-05-15T05:25:57.608Z,935.47
2018-05-15T05:26:57.646Z,935.47
2018-05-15T05:27:57.743Z,935.45
2018-05-15T05:28:57.644Z,935.47
2018-05-15T05:29:57.667Z,935.41
2018-05-15T05:30:57.698Z,935.45
2018-05-15T05:31:57.717Z,935.51
2018-05-15T05:32:57.799Z,935.44
2018-05-15T05:33:57.707Z,935.44
2018-05-15T05:34:57.754Z,935.44
2018-05-15T05:35:57.750Z,935.48
2018-05-15T05:36:57.772Z,935.42
2018-05-15T05:37:57.882Z,935.44
2018-05-15T05:38:57.811Z,935.33
2018-05-15T05:39:57.873Z,935.37
2018-05-15T05:40:57.840Z,935.39
2018-05-15T05:41:57.850Z,935.33
2018-05-15T05:42:57.938Z,935.41
2018-05-15T05:43:57.865Z,935.37
2018-05-15T05:44:57.867Z,935.38
2018-05-15T05:45:57.903Z,935.33
2018-05-15T05:46:57.892Z,935.38
2018-05-15T05:47:58.060Z,935.36
2018-05-15T05:48:57.947Z,935.39
2018-05-15T05:49:57.961Z,935.38
2018-05-15T05:50:57.975Z,935.37
2018-05-15T05:51:58.002Z,935.31
2018-05-15T05:52:58.077Z,935.37
2018-05-15T05:53:58.016Z,935.38
2018-05-15T05:54:58.002Z,935.35
2018-05-15T05:55:58.043Z,935.41
2018-05-15T05:56:58.034Z,935.44
2018-05-15T05:57:58.180Z,935.38
2018-05-15T05:58:58.063Z,935.40
2018-05-15T05:59:58.075Z,935.40
2018-05-15T06:00:58.093Z,935.39
2018-05-15T06:01:58.094Z,935.40
2018-05-15T06:02:58.224Z,935.38
2018-05-15T06:03:58.152Z,935.41
2018-05-15T06:04:58.138Z,935.41
2018-05-15T06:05:58.157Z,935.42
2018-05-15T06:06:58.176Z,935.46
2018-05-15T06:07:58.301Z,935.46
2018-05-15T06:08:58.225Z,935.45
2018-05-15T06:09:58.238Z,935.45
2018-05-15T06:10:58.226Z,935.45
2018-05-15T06:11:58.248Z,935.48
2018-05-15T06:12:58.354Z,935.47
2018-05-15T06:13:58.268Z,935.46
2018-05-15T06:14:58.304Z,935.46
2018-05-15T06:15:58.323Z,935.48
2018-05-15T06:16:58.301Z,935.46
2018-05-15T06:17:58.495Z,935.49
2018-05-15T06:18:58.337Z,935.49
2018-05-15T06:19:58.373Z,935.38
2018-05-15T06:20:58.389Z,935.44
2018-05-15T06:21:58.375Z,935.39
2018-05-15T06:22:58.571Z,935.38
2018-05-15T06:23:58.428Z,935.39
2018-05-15T06:24:58.433Z,935.43
2018-05-15T06:25:58.458Z,935.38
2018-05-15T06:26:58.444Z,935.45
2018-05-15T06:27:58.563Z,935.41
2018-05-15T06:28:58.473Z,935.43
2018-05-15T06:29:58.487Z,935.44
2018-05-15T06:30:58.541Z,935.47
2018-05-15T06:31:58.520Z,935.46
2018-05-15T06:32:58.658Z,935.47
2018-05-15T06:33:58.547Z,935.48
2018-05-15T06:34:58.560Z,935.40
2018-05-15T06:35:58.572Z,935.42
2018-05-15T06:36:58.587Z,935.44
2018-05-15T06:37:58.728Z,935.41
2018-05-15T06:38:58.638Z,935.42
2018-05-15T06:39:58.631Z,935.40
2018-05-15T06:40:58.653Z,935.35
2018-05-15T06:41:58.653Z,935.35
2018-05-15T06:42:58.772Z,935.31
2018-05-15T06:43:58.685Z,935.29
2018-05-15T06:44:58.722Z,935.29
2018-05-15T06:45:58.712Z,935.30
2018-05-15T06:46:58.727Z,935.30
2018-05-15T06:47:58.890Z,935.28
2018-05-15T06:48:58.769Z,935.24
2018-05-15T06:49:58.797Z,935.27
2018-05-15T06:50:58.807Z,935.28
2018-05-15T06:51:58.801Z,935.30
2018-05-15T06:52:58.916Z,935.31
2018-05-15T06:53:58.824Z,935.28
2018-05-15T06:54:58.862Z,935.24
2018-05-15T06:55:58.861Z,935.29
2018-05-15T06:56:58.874Z,935.35
2018-05-15T06:57:59.003Z,935.29
2018-05-15T06:58:58.900Z,935.28
2018-05-15T06:59:58.934Z,935.23
2018-05-15T07:00:58.936Z,935.28
2018-05-15T07:01:58.952Z,935.27
2018-05-15T07:02:59.100Z,935.25
2018-05-15T07:03:58.986Z,935.30
2018-05-15T07:04:58.978Z,935.23
2018-05-15T07:05:59.020Z,935.28
2018-05-15T07:06:59.003Z,935.27
2018-05-15T07:07:59.126Z,935.27
2018-05-15T07:08:59.030Z,935.33
2018-05-15T07:09:59.045Z,935.31
2018-05-15T07:10:59.062Z,935.30
2018-05-15T07:11:59.069Z,935.30
2018-05-15T07:12:59.249Z,935.31
2018-05-15T07:13:59.104Z,935.28
2018-05-15T07:14:59.140Z,935.29
2018-05-15T07:15:59.157Z,935.30
2018-05-15T07:16:59.142Z,935.27
2018-05-15T07:17:59.253Z,935.26
2018-05-15T07:18:59.198Z,935.23
2018-05-15T07:19:59.187Z,935.25
2018-05-15T07:20:59.199Z,935.28
2018-05-15T07:21:59.210Z,935.27
2018-05-15T07:22:59.329Z,935.27
2018-05-15T07:23:59.243Z,935.24
2018-05-15T07:24:59.267Z,935.23
2018-05-15T07:25:59.279Z,935.22
2018-05-15T07:26:59.282Z,935.25
2018-05-15T07:27:59.400Z,935.24
2018-05-15T07:28:59.309Z,935.26
2018-05-15T07:29:59.332Z,935.23
2018-05-15T07:30:59.342Z,935.24
2018-05-15T07:31:59.363Z,935.25
2018-05-15T07:32:59.483Z,935.25
2018-05-15T07:33:59.374Z,935.24
2018-05-15T07:34:59.393Z,935.29
2018-05-15T07:35:59.408Z,935.29
2018-05-15T07:36:59.429Z,935.30
2018-05-15T07:37:59.534Z,935.26
2018-05-15T07:38:59.452Z,935.30
2018-05-15T07:39:59.458Z,935.29
2018-05-15T07:40:59.507Z,935.27
2018-05-15T07:41:59.518Z,935.30
2018-05-15T07:42:59.607Z,935.32
2018-05-15T07:43:59.519Z,935.27
2018-05-15T07:44:59.550Z,935.28
2018-05-15T07:45:59.543Z,935.26
2018-05-15T07:46:59.585Z,935.26
2018-05-15T07:47:59.577Z,935.33
2018-05-15T07:48:59.751Z,935.34
2018-05-15T07:49:59.627Z,935.31
2018-05-15T07:50:59.645Z,935.32
2018-05-15T07:51:59.630Z,935.32
2018-05-15T07:52:59.645Z,935.32
2018-05-15T07:53:59.759Z,935.29
2018-05-15T07:54:59.674Z,935.32
2018-05-15T07:55:59.695Z,935.34
2018-05-15T07:56:59.699Z,935.37
2018-05-15T07:57:59.719Z,935.42
2018-05-15T07:58:59.857Z,935.39
2018-05-15T07:59:59.740Z,935.42
2018-05-15T08:00:59.766Z,935.46
2018-05-15T08:01:59.834Z,935.44
2018-05-15T08:02:59.809Z,935.48
2018-05-15T08:03:59.972Z,935.46
2018-05-15T08:04:59.837Z,935.47
2018-05-15T08:05:59.838Z,935.50
2018-05-15T08:06:59.836Z,935.52
2018-05-15T08:07:59.876Z,935.52
2018-05-15T08:09:00.042Z,935.49
2018-05-15T08:09:59.909Z,935.49
2018-05-15T08:10:59.895Z,935.51
2018-05-15T08:11:59.908Z,935.53
2018-05-15T08:12:59.919Z,935.58
2018-05-15T08:14:00.061Z,935.58
2018-05-15T08:14:59.963Z,935.61
2018-05-15T08:15:59.959Z,935.63
2018-05-15T08:16:59.989Z,935.63
2018-05-15T08:17:59.995Z,935.63
2018-05-15T08:19:00.149Z,935.62
2018-05-15T08:20:00.019Z,935.69
2018-05-15T08:21:00.055Z,935.66
2018-05-15T08:22:00.048Z,935.67
2018-05-15T08:23:00.062Z,935.70
2018-05-15T08:24:00.180Z,935.72
2018-05-15T08:25:00.087Z,935.69
2018-05-15T08:26:00.099Z,935.68
2018-05-15T08:27:00.122Z,935.71
2018-05-15T08:28:00.135Z,935.70
2018-05-15T08:29:00.267Z,935.78
2018-05-15T08:30:00.155Z,935.77
2018-05-15T08:31:00.194Z,935.79
2018-05-15T08:32:00.182Z,935.83
2018-05-15T08:33:00.222Z,935.84
2018-05-15T08:34:00.311Z,935.90
2018-05-15T08:35:00.224Z,935.90
2018-05-15T08:36:00.249Z,935.87
2018-05-15T08:37:00.262Z,935.88
2018-05-15T08:38:00.267Z,935.90
2018-05-15T08:39:00.409Z,935.94
2018-05-15T08:40:00.311Z,935.95
2018-05-15T08:41:00.338Z,935.93
2018-05-15T08:42:00.348Z,935.97
2018-05-15T08:43:00.339Z,935.97
2018-05-15T08:44:00.465Z,936.00
2018-05-15T08:45:00.376Z,936.05
2018-05-15T08:46:00.383Z,936.03
2018-05-15T08:47:00.399Z,936.04
2018-05-15T08:48:00.426Z,936.09
2018-05-15T08:49:00.551Z,936.06
2018-05-15T08:50:00.450Z,936.08
2018-05-15T08:51:00.451Z,936.07
2018-05-15T08:52:00.472Z,936.08
2018-05-15T08:53:00.481Z,936.09
2018-05-15T08:54:00.621Z,936.09
2018-05-15T08:55:00.509Z,936.14
2018-05-15T08:56:00.521Z,936.15
2018-05-15T08:57:00.539Z,936.19
2018-05-15T08:58:00.548Z,936.18
2018-05-15T08:59:00.742Z,936.23
2018-05-15T09:00:00.603Z,936.23
2018-05-15T09:01:00.609Z,936.24
2018-05-15T09:02:00.603Z,936.21
2018-05-15T09:03:00.619Z,936.17
2018-05-15T09:04:00.799Z,936.18
2018-05-15T09:05:00.677Z,936.18
2018-05-15T09:06:00.695Z,936.19
2018-05-15T09:07:00.681Z,936.20
2018-05-15T09:08:00.689Z,936.23
2018-05-15T09:09:00.834Z,936.26
2018-05-15T09:10:00.719Z,936.26
2018-05-15T09:11:00.736Z,936.26
2018-05-15T09:12:00.777Z,936.28
2018-05-15T09:13:00.769Z,936.27
2018-05-15T09:14:00.876Z,936.27
2018-05-15T09:15:00.789Z,936.27
2018-05-15T09:16:00.815Z,936.29
2018-05-15T09:17:00.821Z,936.30
2018-05-15T09:18:00.830Z,936.30
2018-05-15T09:19:00.998Z,936.32
2018-05-15T09:20:00.889Z,936.33
2018-05-15T09:21:00.875Z,936.30
2018-05-15T09:22:00.887Z,936.32
2018-05-15T09:23:00.929Z,936.34
2018-05-15T09:24:01.081Z,936.38
2018-05-15T09:25:00.933Z,936.39
2018-05-15T09:26:00.975Z,936.40
2018-05-15T09:27:00.960Z,936.48
2018-05-15T09:28:00.987Z,936.46
2018-05-15T09:29:01.119Z,936.50
2018-05-15T09:30:00.997Z,936.50
2018-05-15T09:31:01.013Z,936.55
2018-05-15T09:32:01.032Z,936.55
2018-05-15T09:33:01.043Z,936.57
2018-05-15T09:34:01.172Z,936.56
2018-05-15T09:35:01.070Z,936.61
2018-05-15T09:36:01.088Z,936.65
2018-05-15T09:37:01.101Z,936.67
2018-05-15T09:38:01.125Z,936.64
2018-05-15T09:39:01.236Z,936.69
2018-05-15T09:40:01.144Z,936.63
2018-05-15T09:41:01.159Z,936.69
2018-05-15T09:42:01.181Z,936.66
2018-05-15T09:43:01.212Z,936.67
2018-05-15T09:44:01.328Z,936.70
2018-05-15T09:45:01.215Z,936.72
2018-05-15T09:46:01.229Z,936.77
2018-05-15T09:47:01.305Z,936.76
2018-05-15T09:48:01.255Z,936.77
2018-05-15T09:49:01.385Z,936.79
2018-05-15T09:50:01.283Z,936.78
2018-05-15T09:51:01.300Z,936.80
2018-05-15T09:52:01.316Z,936.81
2018-05-15T09:53:01.342Z,936.81
2018-05-15T09:54:01.440Z,936.81
2018-05-15T09:55:01.359Z,936.87
2018-05-15T09:56:01.372Z,936.86
2018-05-15T09:57:01.383Z,936.84
2018-05-15T09:58:01.422Z,936.81
2018-05-15T09:59:01.516Z,936.85
2018-05-15T10:00:01.435Z,936.87
2018-05-15T10:01:01.470Z,936.86
2018-05-15T10:02:01.511Z,936.91
2018-05-15T10:03:01.497Z,936.91
2018-05-15T10:04:01.635Z,936.92
2018-05-15T10:05:01.519Z,936.95
2018-05-15T10:06:01.542Z,936.96
2018-05-15T10:07:01.555Z,936.96
2018-05-15T10:08:01.601Z,936.95
2018-05-15T10:09:01.711Z,936.95
2018-05-15T10:10:01.600Z,936.96
2018-05-15T10:11:01.583Z,936.99
2018-05-15T10:12:01.630Z,936.99
2018-05-15T10:13:01.618Z,937.02
2018-05-15T10:14:01.791Z,937.06
2018-05-15T10:15:01.674Z,937.04
2018-05-15T10:16:01.687Z,937.05
2018-05-15T10:17:01.686Z,937.05
2018-05-15T10:18:01.717Z,937.03
2018-05-15T10:19:01.814Z,937.04
2018-05-15T10:20:01.804Z,937.03
2018-05-15T10:21:01.729Z,937.05
2018-05-15T10:22:01.778Z,937.06
2018-05-15T10:23:01.786Z,937.08
2018-05-15T10:24:01.908Z,937.07
2018-05-15T10:25:01.798Z,937.04
2018-05-15T10:26:01.806Z,937.07
2018-05-15T10:27:01.835Z,937.08
2018-05-15T10:28:01.863Z,937.08
2018-05-15T10:29:02.028Z,937.11
2018-05-15T10:30:01.915Z,937.13
2018-05-15T10:31:01.877Z,937.15
2018-05-15T10:32:01.894Z,937.17
2018-05-15T10:33:01.931Z,937.19
2018-05-15T10:34:02.023Z,937.11
2018-05-15T10:35:01.961Z,937.21
2018-05-15T10:36:01.979Z,937.18
2018-05-15T10:37:01.968Z,937.21
2018-05-15T10:38:01.983Z,937.16
2018-05-15T10:39:02.148Z,937.19
2018-05-15T10:40:02.039Z,937.15
2018-05-15T10:41:02.031Z,937.15
2018-05-15T10:42:02.035Z,937.15
2018-05-15T10:43:02.054Z,937.16
2018-05-15T10:44:02.253Z,937.16
2018-05-15T10:45:02.087Z,937.15
2018-05-15T10:46:02.101Z,937.16
2018-05-15T10:47:02.112Z,937.17
2018-05-15T10:48:02.153Z,937.18
2018-05-15T10:49:02.271Z,937.21
2018-05-15T10:50:02.154Z,937.18
2018-05-15T10:51:02.205Z,937.17
2018-05-15T10:52:02.188Z,937.24
2018-05-15T10:53:02.210Z,937.25
2018-05-15T10:54:02.350Z,937.26
2018-05-15T10:55:02.236Z,937.28
2018-05-15T10:56:02.246Z,937.27
2018-05-15T10:57:02.264Z,937.32
2018-05-15T10:58:02.277Z,937.28
2018-05-15T10:59:02.420Z,937.28
2018-05-15T11:00:02.316Z,937.29
2018-05-15T11:01:02.354Z,937.29
2018-05-15T11:02:02.376Z,937.30
2018-05-15T11:03:02.360Z,937.25
2018-05-15T11:04:02.496Z,937.28
2018-05-15T11:05:02.389Z,937.27
2018-05-15T11:06:02.411Z,937.29
2018-05-15T11:07:02.446Z,937.27
2018-05-15T11:08:02.436Z,937.24
2018-05-15T11:09:02.632Z,937.30
2018-05-15T11:10:02.477Z,937.27
2018-05-15T11:11:02.484Z,937.24
2018-05-15T11:12:02.526Z,937.21
2018-05-15T11:13:02.540Z,937.23
2018-05-15T11:14:02.658Z,937.23
2018-05-15T11:15:02.551Z,937.20
2018-05-15T11:16:02.575Z,937.18
2018-05-15T11:17:02.576Z,937.18
2018-05-15T11:18:02.593Z,937.11
2018-05-15T11:19:02.760Z,937.11
2018-05-15T11:20:02.651Z,937.09
2018-05-15T11:21:02.664Z,937.06
2018-05-15T11:22:02.658Z,937.05
2018-05-15T11:23:02.702Z,937.04
2018-05-15T11:24:02.865Z,937.04
2018-05-15T11:25:02.737Z,937.05
2018-05-15T11:26:02.729Z,937.04
2018-05-15T11:27:02.736Z,936.98
2018-05-15T11:28:02.778Z,937.01
2018-05-15T11:29:02.864Z,936.99
2018-05-15T11:30:02.813Z,936.96
2018-05-15T11:31:02.794Z,937.01
2018-05-15T11:32:02.814Z,937.04
2018-05-15T11:33:02.829Z,937.02
2018-05-15T11:34:02.948Z,937.04
2018-05-15T11:35:02.872Z,937.05
2018-05-15T11:36:02.968Z,937.06
2018-05-15T11:37:02.922Z,937.06
2018-05-15T11:38:02.937Z,937.06
2018-05-15T11:39:03.029Z,937.08
2018-05-15T11:40:02.946Z,937.11
2018-05-15T11:41:02.987Z,937.10
2018-05-15T11:42:02.972Z,937.15
2018-05-15T11:43:03.020Z,937.16
2018-05-15T11:44:03.106Z,937.15
2018-05-15T11:45:03.034Z,937.13
2018-05-15T11:46:03.049Z,937.17
2018-05-15T11:47:03.069Z,937.17
2018-05-15T11:48:03.396Z,937.20
2018-05-15T11:49:03.945Z,937.20
2018-05-15T11:50:04.280Z,937.23
2018-05-15T11:51:03.681Z,937.23
2018-05-15T11:52:03.803Z,937.21
2018-05-15T11:53:03.683Z,937.25
2018-05-15T11:54:03.355Z,937.23
2018-05-15T11:55:03.206Z,937.28
2018-05-15T11:56:03.235Z,937.28
2018-05-15T11:57:03.240Z,937.26
2018-05-15T11:58:03.313Z,937.25
2018-05-15T11:59:03.355Z,937.21
2018-05-15T12:00:03.784Z,937.15
2018-05-15T12:01:03.735Z,937.21
2018-05-15T12:02:03.512Z,937.24
2018-05-15T12:03:03.350Z,937.27
2018-05-15T12:04:03.547Z,937.30
2018-05-15T12:05:03.376Z,937.25
2018-05-15T12:06:03.377Z,937.25
2018-05-15T12:07:03.420Z,937.26
2018-05-15T12:08:03.593Z,937.21
2018-05-15T12:09:03.481Z,937.23
2018-05-15T12:10:03.574Z,937.26
2018-05-15T12:11:03.487Z,937.29
2018-05-15T12:12:03.504Z,937.32
2018-05-15T12:13:03.519Z,937.31
2018-05-15T12:14:03.526Z,937.36
2018-05-15T12:15:03.687Z,937.35
2018-05-15T12:16:03.588Z,937.36
2018-05-15T12:17:03.587Z,937.39
2018-05-15T12:18:03.580Z,937.41
2018-05-15T12:19:03.602Z,937.42
2018-05-15T12:20:03.781Z,937.45
2018-05-15T12:21:03.720Z,937.45
2018-05-15T12:22:03.645Z,937.45
2018-05-15T12:23:04.263Z,937.47
2018-05-15T12:24:03.709Z,937.50
2018-05-15T12:25:04.050Z,937.53
2018-05-15T12:26:03.949Z,937.50
2018-05-15T12:27:03.732Z,937.50
2018-05-15T12:28:03.838Z,937.50
2018-05-15T12:29:03.774Z,937.48
2018-05-15T12:30:03.938Z,937.47
2018-05-15T12:31:03.806Z,937.46
2018-05-15T12:32:03.822Z,937.40
2018-05-15T12:33:04.905Z,937.41